createdAt,value
2023-03-10T00:01:57.051Z,91322.63
2023-03-10T00:04:29.536Z,91325.53
2023-03-10T00:07:01.855Z,91342.25
2023-03-10T00:09:34.145Z,91338.72
2023-03-10T00:12:07.394Z,91335.03
2023-03-10T00:14:40.484Z,91339.03
2023-03-10T00:17:12.755Z,91337.50
2023-03-10T00:19:45.261Z,91331.84
2023-03-10T00:22:17.550Z,91325.06
2023-03-10T00:24:49.822Z,91332.59
2023-03-10T00:27:22.114Z,91328.59
2023-03-10T00:29:55.978Z,91325.53
2023-03-10T00:32:28.403Z,91324.16
2023-03-10T00:35:00.918Z,91318.34
2023-03-10T00:37:36.751Z,91312.97
2023-03-10T00:40:11.483Z,91311.56
2023-03-10T00:42:44.415Z,91308.38
2023-03-10T00:45:18.074Z,91305.16
2023-03-10T00:47:50.367Z,91301.47
2023-03-10T00:50:23.153Z,91298.44
2023-03-10T00:52:55.512Z,91299.66
2023-03-10T00:55:27.822Z,91294.59
2023-03-10T00:58:00.222Z,91296.88
2023-03-10T01:00:33.721Z,91298.09
2023-03-10T01:03:06.030Z,91305.63
2023-03-10T01:05:38.324Z,91311.88
2023-03-10T01:08:10.592Z,91316.34
2023-03-10T01:10:43.091Z,91313.75
2023-03-10T01:13:16.450Z,91309.28
2023-03-10T01:15:50.311Z,91302.41
2023-03-10T01:18:22.929Z,91301.00
2023-03-10T01:20:55.276Z,91293.06
2023-03-10T01:23:27.968Z,91292.94
2023-03-10T01:26:00.385Z,91298.44
2023-03-10T01:28:32.643Z,91299.81
2023-03-10T01:31:07.266Z,91285.56
2023-03-10T01:33:40.682Z,91284.81
2023-03-10T01:36:15.843Z,91289.13
2023-03-10T01:38:51.078Z,91296.94
2023-03-10T01:41:23.397Z,91287.75
2023-03-10T01:43:57.926Z,91290.50
2023-03-10T01:46:50.457Z,91290.38
2023-03-10T01:49:40.363Z,91295.09
2023-03-10T01:52:15.943Z,91299.56
2023-03-10T01:54:52.346Z,91284.88
2023-03-10T01:57:29.507Z,91301.22
2023-03-10T02:00:05.432Z,91308.28
2023-03-10T02:02:54.980Z,91304.13
2023-03-10T02:05:29.400Z,91298.31
2023-03-10T02:08:03.004Z,91295.09
2023-03-10T02:10:35.841Z,91289.44
2023-03-10T02:13:08.219Z,91293.41
2023-03-10T02:15:41.008Z,91290.78
2023-03-10T02:18:16.479Z,91286.81
2023-03-10T02:20:57.409Z,91286.50
2023-03-10T02:23:36.391Z,91283.13
2023-03-10T02:26:18.523Z,91292.28
2023-03-10T02:28:54.583Z,91295.94
2023-03-10T02:31:27.815Z,91290.88
2023-03-10T02:34:01.329Z,91288.16
2023-03-10T02:36:33.698Z,91284.44
2023-03-10T02:39:06.082Z,91291.50
2023-03-10T02:41:39.788Z,91282.03
2023-03-10T02:44:19.014Z,91290.59
2023-03-10T02:46:51.325Z,91285.69
2023-03-10T02:49:24.943Z,91276.78
2023-03-10T02:52:00.933Z,91290.13
2023-03-10T02:54:33.610Z,91284.31
2023-03-10T02:57:06.033Z,91286.31
2023-03-10T02:59:39.368Z,91287.06
2023-03-10T03:02:11.752Z,91291.78
2023-03-10T03:04:44.564Z,91291.78
2023-03-10T03:07:16.983Z,91288.56
2023-03-10T03:09:49.955Z,91286.53
2023-03-10T03:12:22.301Z,91281.19
2023-03-10T03:14:55.374Z,91279.03
2023-03-10T03:17:28.445Z,91278.59
2023-03-10T03:20:01.055Z,91277.09
2023-03-10T03:22:33.348Z,91278.16
2023-03-10T03:25:06.234Z,91276.16
2023-03-10T03:27:39.132Z,91267.72
2023-03-10T03:30:16.289Z,91270.34
2023-03-10T03:32:49.292Z,91259.78
2023-03-10T03:35:25.233Z,91257.66
2023-03-10T03:37:57.986Z,91264.53
2023-03-10T03:40:33.375Z,91259.03
2023-03-10T03:43:06.314Z,91271.41
2023-03-10T03:45:41.095Z,91261.91
2023-03-10T03:48:13.849Z,91271.09
2023-03-10T03:50:54.274Z,91270.81
2023-03-10T03:53:35.610Z,91276.97
2023-03-10T03:56:08.950Z,91279.84
2023-03-10T03:58:43.371Z,91280.91
2023-03-10T04:01:17.255Z,91269.44
2023-03-10T04:03:54.490Z,91277.97
2023-03-10T04:06:27.560Z,91273.72
2023-03-10T04:09:00.296Z,91277.84
2023-03-10T04:11:34.807Z,91281.63
2023-03-10T04:14:07.504Z,91267.28
2023-03-10T04:16:40.783Z,91259.31
2023-03-10T04:19:13.690Z,91259.97
2023-03-10T04:21:49.764Z,91260.78
2023-03-10T04:24:23.297Z,91260.50
2023-03-10T04:26:55.633Z,91264.34
2023-03-10T04:29:28.165Z,91256.66
2023-03-10T04:32:05.853Z,91251.94
2023-03-10T04:34:42.592Z,91253.47
2023-03-10T04:37:16.633Z,91252.88
2023-03-10T04:39:49.130Z,91243.69
2023-03-10T04:42:21.541Z,91247.81
2023-03-10T04:44:53.920Z,91258.78
2023-03-10T04:47:27.794Z,91241.19
2023-03-10T04:50:00.130Z,91238.75
2023-03-10T04:52:33.441Z,91242.84
2023-03-10T04:55:06.810Z,91240.25
2023-03-10T04:57:39.292Z,91224.47
2023-03-10T05:00:13.033Z,91233.19
2023-03-10T05:02:47.291Z,91230.31
2023-03-10T05:05:19.920Z,91227.88
2023-03-10T05:07:52.761Z,91217.78
2023-03-10T05:10:25.472Z,91215.63
2023-03-10T05:12:57.770Z,91211.94
2023-03-10T05:15:33.540Z,91219.25
2023-03-10T05:18:07.491Z,91211.16
2023-03-10T05:20:40.464Z,91211.16
2023-03-10T05:23:12.953Z,91212.22
2023-03-10T05:25:45.305Z,91209.28
2023-03-10T05:28:19.197Z,91197.53
2023-03-10T05:30:51.627Z,91203.19
2023-03-10T05:33:24.986Z,91202.91
2023-03-10T05:35:57.922Z,91197.25
2023-03-10T05:38:30.450Z,91201.78
2023-03-10T05:41:06.394Z,91203.31
2023-03-10T05:43:39.388Z,91196.16
2023-03-10T05:46:13.137Z,91199.66
2023-03-10T05:48:51.805Z,91189.28
2023-03-10T05:51:24.382Z,91197.53
2023-03-10T05:53:56.910Z,91194.81
2023-03-10T05:56:32.877Z,91187.63
2023-03-10T05:59:07.475Z,91189.63
2023-03-10T06:01:41.565Z,91189.16
2023-03-10T06:04:14.567Z,91188.72
2023-03-10T06:06:46.928Z,91194.84
2023-03-10T06:09:19.226Z,91191.50
2023-03-10T06:11:51.544Z,91202.22
2023-03-10T06:14:24.722Z,91193.69
2023-03-10T06:16:57.288Z,91199.03
2023-03-10T06:19:30.235Z,91197.34
2023-03-10T06:22:02.555Z,91192.78
2023-03-10T06:24:34.833Z,91195.84
2023-03-10T06:27:07.131Z,91204.19
2023-03-10T06:29:39.437Z,91205.72
2023-03-10T06:32:11.864Z,91206.19
2023-03-10T06:34:44.851Z,91202.50
2023-03-10T06:37:17.481Z,91201.13
2023-03-10T06:39:49.819Z,91207.69
2023-03-10T06:42:22.160Z,91205.41
2023-03-10T06:44:55.042Z,91205.22
2023-03-10T06:47:27.286Z,91210.41
2023-03-10T06:50:01.942Z,91210.09
2023-03-10T06:52:34.949Z,91205.78
2023-03-10T06:55:08.113Z,91206.84
2023-03-10T06:57:40.664Z,91208.03
2023-03-10T07:00:15.124Z,91202.63
2023-03-10T07:02:47.516Z,91194.94
2023-03-10T07:05:22.342Z,91202.06
2023-03-10T07:07:54.728Z,91195.28
2023-03-10T07:10:27.177Z,91189.69
2023-03-10T07:12:59.542Z,91185.69
2023-03-10T07:15:32.580Z,91185.25
2023-03-10T07:18:04.906Z,91165.53
2023-03-10T07:20:40.651Z,91171.72
2023-03-10T07:23:14.033Z,91173.16
2023-03-10T07:25:46.498Z,91176.78
2023-03-10T07:28:18.877Z,91167.69
2023-03-10T07:30:51.624Z,91170.50
2023-03-10T07:33:24.054Z,91171.63
2023-03-10T07:35:57.065Z,91165.50
2023-03-10T07:38:29.396Z,91170.97
2023-03-10T07:41:06.212Z,91176.75
2023-03-10T07:43:38.553Z,91164.72
2023-03-10T07:46:12.914Z,91153.75
2023-03-10T07:48:45.322Z,91147.88
2023-03-10T07:51:18.430Z,91143.63
2023-03-10T07:53:50.764Z,91141.59
2023-03-10T07:56:23.061Z,91135.38
2023-03-10T07:58:55.313Z,91136.91
2023-03-10T08:01:27.708Z,91113.13
2023-03-10T08:04:00.395Z,91122.03
2023-03-10T08:06:34.506Z,91119.19
2023-03-10T08:09:06.790Z,91118.28
2023-03-10T08:11:39.366Z,91119.34
2023-03-10T08:14:11.685Z,91103.75
2023-03-10T08:16:43.991Z,91104.72
2023-03-10T08:19:16.453Z,91104.16
2023-03-10T08:21:49.538Z,91110.84
2023-03-10T08:24:21.863Z,91108.50
2023-03-10T08:26:54.184Z,91105.06
2023-03-10T08:29:26.534Z,91088.31
2023-03-10T08:31:58.987Z,91079.84
2023-03-10T08:34:32.427Z,91075.28
2023-03-10T08:37:05.462Z,91069.94
2023-03-10T08:39:38.896Z,91071.78
2023-03-10T08:42:11.920Z,91085.69
2023-03-10T08:44:44.455Z,91083.03
2023-03-10T08:47:16.761Z,91085.72
2023-03-10T08:49:49.253Z,91073.94
2023-03-10T08:52:23.581Z,91080.03
2023-03-10T08:54:58.196Z,91067.75
2023-03-10T08:57:31.886Z,91069.00
2023-03-10T09:00:05.666Z,91061.41
2023-03-10T09:02:38.393Z,91077.38
2023-03-10T09:05:11.001Z,91063.97
2023-03-10T09:07:44.209Z,91057.50
2023-03-10T09:10:16.613Z,91050.34
2023-03-10T09:12:48.914Z,91043.38
2023-03-10T09:15:22.055Z,91044.97
2023-03-10T09:17:54.964Z,91062.13
2023-03-10T09:20:29.387Z,91036.81
2023-03-10T09:23:02.918Z,91037.00
2023-03-10T09:25:35.414Z,91030.66
2023-03-10T09:28:08.313Z,91043.59
2023-03-10T09:30:42.304Z,91047.13
2023-03-10T09:33:16.843Z,91040.88
2023-03-10T09:36:05.960Z,91050.56
2023-03-10T09:38:41.351Z,91044.56
2023-03-10T09:41:36.335Z,91043.84
2023-03-10T09:44:23.049Z,91029.00
2023-03-10T09:47:11.703Z,91020.56
2023-03-10T09:49:53.837Z,91033.78
2023-03-10T09:52:32.839Z,91022.44
2023-03-10T09:55:18.152Z,91016.25
2023-03-10T09:57:52.910Z,91008.75
2023-03-10T10:00:29.114Z,91007.28
2023-03-10T10:03:07.877Z,91009.09
2023-03-10T10:05:42.087Z,91004.53
2023-03-10T10:08:20.750Z,90991.75
2023-03-10T10:10:55.629Z,91004.88
2023-03-10T10:13:30.019Z,91004.19
2023-03-10T10:16:28.111Z,91008.84
2023-03-10T10:19:12.164Z,90996.16
2023-03-10T10:21:51.746Z,91002.44
2023-03-10T10:24:24.182Z,91002.75
2023-03-10T10:26:57.197Z,91004.44
2023-03-10T10:29:34.012Z,90986.59
2023-03-10T10:32:08.923Z,91002.63
2023-03-10T10:34:42.836Z,90988.88
2023-03-10T10:37:29.166Z,90992.97
2023-03-10T10:40:03.748Z,90987.88
2023-03-10T10:42:37.329Z,90987.53
2023-03-10T10:45:24.474Z,90993.47
2023-03-10T10:47:57.244Z,90988.78
2023-03-10T10:50:31.527Z,90989.88
2023-03-10T10:53:20.281Z,90992.06
2023-03-10T10:56:01.477Z,90980.13
2023-03-10T10:58:35.961Z,90976.34
2023-03-10T11:01:11.768Z,90967.28
2023-03-10T11:03:47.236Z,90964.47
2023-03-10T11:06:26.345Z,90956.06
2023-03-10T11:09:04.296Z,90949.88
2023-03-10T11:11:44.986Z,90947.91
2023-03-10T11:14:42.570Z,90941.94
2023-03-10T11:17:22.394Z,90940.78
2023-03-10T11:20:01.269Z,90930.09
2023-03-10T11:22:39.526Z,90922.16
2023-03-10T11:25:23.826Z,90938.16
2023-03-10T11:28:10.238Z,90959.81
2023-03-10T11:30:48.831Z,90951.25
2023-03-10T11:33:27.847Z,90935.75
2023-03-10T11:36:10.843Z,90927.97
2023-03-10T11:38:46.318Z,90915.97
2023-03-10T11:41:23.642Z,90888.81
2023-03-10T11:44:00.127Z,90887.41
2023-03-10T11:46:39.112Z,90883.53
2023-03-10T11:49:14.032Z,90855.63
2023-03-10T11:51:50.515Z,90841.06
2023-03-10T11:54:26.991Z,90853.53
2023-03-10T11:57:02.075Z,90854.56
2023-03-10T11:59:41.402Z,90851.03
2023-03-10T12:02:21.327Z,90848.34
2023-03-10T12:04:59.248Z,90845.06
2023-03-10T12:07:35.864Z,90815.88
2023-03-10T12:10:15.670Z,90835.03
2023-03-10T12:12:48.305Z,90832.34
2023-03-10T12:15:24.814Z,90828.00
2023-03-10T12:17:58.268Z,90805.31
2023-03-10T12:20:32.892Z,90784.94
2023-03-10T12:23:29.572Z,90777.25
2023-03-10T12:26:01.874Z,90786.06
2023-03-10T12:28:34.448Z,90776.28
2023-03-10T12:31:09.810Z,90779.84
2023-03-10T12:33:50.113Z,90773.50
2023-03-10T12:36:36.698Z,90791.06
2023-03-10T12:39:31.236Z,90790.41
2023-03-10T12:42:04.550Z,90775.06
2023-03-10T12:44:46.405Z,90764.13
2023-03-10T12:47:35.297Z,90780.63
2023-03-10T12:50:26.111Z,90770.50
2023-03-10T12:53:07.207Z,90767.81
2023-03-10T12:55:41.674Z,90766.09
2023-03-10T12:58:20.421Z,90771.84
2023-03-10T13:00:57.918Z,90773.88
2023-03-10T13:03:35.091Z,90774.94
2023-03-10T13:06:21.433Z,90780.53
2023-03-10T13:08:57.962Z,90777.88
2023-03-10T13:11:35.496Z,90763.22
2023-03-10T13:14:12.917Z,90758.56
2023-03-10T13:16:53.388Z,90749.28
2023-03-10T13:19:28.372Z,90732.53
2023-03-10T13:22:04.064Z,90737.84
2023-03-10T13:24:37.700Z,90741.03
2023-03-10T13:27:13.997Z,90724.00
2023-03-10T13:29:55.049Z,90706.63
2023-03-10T13:32:28.447Z,90708.41
2023-03-10T13:35:20.633Z,90709.06
2023-03-10T13:38:09.878Z,90689.88
2023-03-10T13:40:44.424Z,90676.13
2023-03-10T13:43:33.437Z,90677.25
2023-03-10T13:46:13.619Z,90661.97
2023-03-10T13:48:47.233Z,90687.59
2023-03-10T13:51:21.665Z,90665.53
2023-03-10T13:53:57.982Z,90668.72
2023-03-10T13:56:35.652Z,90659.97
2023-03-10T13:59:14.686Z,90662.13
2023-03-10T14:01:49.620Z,90641.16
2023-03-10T14:04:41.503Z,90651.78
2023-03-10T14:07:17.633Z,90642.94
2023-03-10T14:10:13.172Z,90633.66
2023-03-10T14:12:47.288Z,90657.53
2023-03-10T14:15:24.570Z,90657.53
2023-03-10T14:18:19.163Z,90654.38
2023-03-10T14:20:51.516Z,90648.50
2023-03-10T14:23:36.422Z,90651.13
2023-03-10T14:26:16.364Z,90641.25
2023-03-10T14:28:48.777Z,90642.00
2023-03-10T14:31:23.164Z,90643.75
2023-03-10T14:33:55.564Z,90630.13
2023-03-10T14:36:27.860Z,90631.56
2023-03-10T14:39:00.149Z,90622.97
2023-03-10T14:41:33.708Z,90619.34
2023-03-10T14:44:06.132Z,90611.09
2023-03-10T14:46:38.576Z,90625.66
2023-03-10T14:49:14.611Z,90627.44
2023-03-10T14:51:46.895Z,90622.09
2023-03-10T14:54:21.332Z,90630.88
2023-03-10T14:56:58.382Z,90628.66
2023-03-10T14:59:30.721Z,90646.47
2023-03-10T15:02:06.840Z,90650.97
2023-03-10T15:04:39.412Z,90646.78
2023-03-10T15:07:12.011Z,90702.81
2023-03-10T15:09:44.699Z,90710.03
2023-03-10T15:12:17.664Z,90705.03
2023-03-10T15:14:53.328Z,90705.28
2023-03-10T15:17:25.652Z,90711.25
2023-03-10T15:19:57.911Z,90707.00
2023-03-10T15:22:30.273Z,90723.81
2023-03-10T15:25:03.799Z,90719.03
2023-03-10T15:27:36.851Z,90719.31
2023-03-10T15:30:17.067Z,90705.06
2023-03-10T15:32:49.704Z,90690.97
2023-03-10T15:35:22.794Z,90684.53
2023-03-10T15:37:56.420Z,90705.25
2023-03-10T15:40:31.398Z,90702.69
2023-03-10T15:43:04.481Z,90697.63
2023-03-10T15:45:40.431Z,90696.06
2023-03-10T15:48:12.816Z,90698.13
2023-03-10T15:50:46.557Z,90687.97
2023-03-10T15:53:18.878Z,90676.09
2023-03-10T15:55:51.925Z,90668.47
2023-03-10T15:58:24.969Z,90648.72
2023-03-10T16:00:57.315Z,90658.53
2023-03-10T16:03:29.740Z,90645.41
2023-03-10T16:06:02.027Z,90643.56
2023-03-10T16:08:36.730Z,90637.28
2023-03-10T16:11:17.121Z,90637.59
2023-03-10T16:13:50.044Z,90625.97
2023-03-10T16:16:22.902Z,90628.81
2023-03-10T16:18:55.597Z,90624.56
2023-03-10T16:21:28.237Z,90617.53
2023-03-10T16:24:01.001Z,90613.84
2023-03-10T16:26:33.748Z,90626.19
2023-03-10T16:29:06.779Z,90619.94
2023-03-10T16:31:39.647Z,90610.59
2023-03-10T16:34:12.076Z,90605.16
2023-03-10T16:36:44.603Z,90602.56
2023-03-10T16:39:17.940Z,90597.69
2023-03-10T16:41:50.560Z,90599.31
2023-03-10T16:44:23.722Z,90592.59
2023-03-10T16:46:56.013Z,90592.06
2023-03-10T16:49:31.297Z,90592.06
2023-03-10T16:52:07.143Z,90599.63
2023-03-10T16:54:39.406Z,90600.81
2023-03-10T16:57:12.396Z,90591.41
2023-03-10T16:59:45.734Z,90602.47
2023-03-10T17:02:17.971Z,90607.47
2023-03-10T17:04:50.334Z,90603.00
2023-03-10T17:07:22.663Z,90612.78
2023-03-10T17:09:55.353Z,90620.81
2023-03-10T17:12:28.013Z,90607.56
2023-03-10T17:15:01.441Z,90610.94
2023-03-10T17:17:33.707Z,90613.31
2023-03-10T17:20:07.363Z,90610.94
2023-03-10T17:22:40.077Z,90609.09
2023-03-10T17:25:13.773Z,90623.84
2023-03-10T17:27:47.382Z,90607.91
2023-03-10T17:30:20.607Z,90608.44
2023-03-10T17:32:52.872Z,90604.75
2023-03-10T17:35:25.450Z,90596.72
2023-03-10T17:37:57.774Z,90593.78
2023-03-10T17:40:30.072Z,90594.66
2023-03-10T17:43:13.149Z,90593.59
2023-03-10T17:45:58.428Z,90591.19
2023-03-10T17:48:31.910Z,90590.31
2023-03-10T17:51:04.635Z,90585.09
2023-03-10T17:53:37.149Z,90581.41
2023-03-10T17:56:10.028Z,90576.19
2023-03-10T17:58:42.923Z,90578.16
2023-03-10T18:01:18.476Z,90562.88
2023-03-10T18:03:50.816Z,90542.69
2023-03-10T18:06:24.855Z,90542.78
2023-03-10T18:08:58.614Z,90547.56
2023-03-10T18:11:31.750Z,90534.06
2023-03-10T18:14:04.508Z,90537.31
2023-03-10T18:16:39.359Z,90533.94
2023-03-10T18:19:12.127Z,90531.66
2023-03-10T18:21:44.531Z,90534.00
2023-03-10T18:24:17.158Z,90544.31
2023-03-10T18:26:49.730Z,90536.50
2023-03-10T18:29:22.214Z,90540.25
2023-03-10T18:31:55.255Z,90559.50
2023-03-10T18:34:27.586Z,90551.19
2023-03-10T18:36:59.860Z,90549.00
2023-03-10T18:39:32.513Z,90545.75
2023-03-10T18:42:05.134Z,90527.50
2023-03-10T18:44:37.406Z,90532.84
2023-03-10T18:47:10.336Z,90522.50
2023-03-10T18:49:42.696Z,90524.34
2023-03-10T18:52:15.691Z,90508.81
2023-03-10T18:54:48.468Z,90500.38
2023-03-10T18:57:20.822Z,90506.72
2023-03-10T18:59:53.160Z,90516.72
2023-03-10T19:02:26.286Z,90507.56
2023-03-10T19:05:02.619Z,90498.97
2023-03-10T19:07:36.036Z,90494.84
2023-03-10T19:10:11.484Z,90499.59
2023-03-10T19:12:43.876Z,90483.94
2023-03-10T19:15:17.052Z,90483.84
2023-03-10T19:17:50.295Z,90474.91
2023-03-10T19:20:22.710Z,90468.06
2023-03-10T19:22:55.128Z,90463.38
2023-03-10T19:25:27.379Z,90457.56
2023-03-10T19:27:59.690Z,90459.19
2023-03-10T19:30:32.167Z,90459.69
2023-03-10T19:33:05.096Z,90455.97
2023-03-10T19:35:38.020Z,90456.66
2023-03-10T19:38:10.563Z,90446.22
2023-03-10T19:40:45.669Z,90463.13
2023-03-10T19:43:18.085Z,90484.97
2023-03-10T19:45:50.345Z,90495.31
2023-03-10T19:48:23.382Z,90513.72
2023-03-10T19:50:57.558Z,90506.09
2023-03-10T19:53:30.352Z,90493.22
2023-03-10T19:56:06.231Z,90473.97
2023-03-10T19:58:38.637Z,90470.72
2023-03-10T20:01:12.471Z,90465.78
2023-03-10T20:03:45.632Z,90465.38
2023-03-10T20:06:18.049Z,90441.50
2023-03-10T20:08:51.205Z,90427.59
2023-03-10T20:11:23.928Z,90429.56
2023-03-10T20:13:56.296Z,90445.19
2023-03-10T20:16:28.940Z,90434.91
2023-03-10T20:19:02.034Z,90443.38
2023-03-10T20:21:34.508Z,90430.78
2023-03-10T20:24:07.358Z,90413.34
2023-03-10T20:26:39.648Z,90420.09
2023-03-10T20:29:14.492Z,90407.69
2023-03-10T20:31:46.859Z,90411.84
2023-03-10T20:34:21.293Z,90408.75
2023-03-10T20:36:53.597Z,90403.81
2023-03-10T20:39:25.899Z,90409.22
2023-03-10T20:41:58.229Z,90392.69
2023-03-10T20:44:30.501Z,90381.97
2023-03-10T20:47:02.794Z,90369.06
2023-03-10T20:49:35.789Z,90356.84
2023-03-10T20:52:08.108Z,90356.78
2023-03-10T20:54:40.427Z,90335.34
2023-03-10T20:57:13.053Z,90340.72
2023-03-10T20:59:45.363Z,90337.16
2023-03-10T21:02:18.267Z,90337.66
2023-03-10T21:04:51.266Z,90326.97
2023-03-10T21:07:23.642Z,90320.34
2023-03-10T21:09:57.358Z,90330.13
2023-03-10T21:12:30.031Z,90341.63
2023-03-10T21:15:03.769Z,90338.13
2023-03-10T21:17:36.295Z,90352.88
2023-03-10T21:20:11.656Z,90350.50
2023-03-10T21:22:44.135Z,90351.69
2023-03-10T21:25:19.532Z,90351.09
2023-03-10T21:27:57.831Z,90341.59
2023-03-10T21:30:32.811Z,90366.13
2023-03-10T21:33:05.239Z,90362.03
2023-03-10T21:35:39.778Z,90388.91
2023-03-10T21:38:12.132Z,90375.41
2023-03-10T21:40:44.704Z,90383.84
2023-03-10T21:43:17.602Z,90381.78
2023-03-10T21:45:49.885Z,90368.69
2023-03-10T21:48:22.281Z,90369.75
2023-03-10T21:50:55.237Z,90375.53
2023-03-10T21:53:28.990Z,90389.19
2023-03-10T21:56:01.342Z,90387.88
2023-03-10T21:58:34.425Z,90376.84
2023-03-10T22:01:07.313Z,90358.63
2023-03-10T22:03:39.664Z,90334.78
2023-03-10T22:06:12.824Z,90319.63
2023-03-10T22:08:45.139Z,90326.34
2023-03-10T22:11:17.550Z,90325.72
2023-03-10T22:13:49.860Z,90316.59
2023-03-10T22:16:22.631Z,90321.06
2023-03-10T22:18:55.143Z,90319.88
2023-03-10T22:21:28.184Z,90306.06
2023-03-10T22:24:00.416Z,90302.59
2023-03-10T22:26:32.871Z,90295.28
2023-03-10T22:29:05.553Z,90285.38
2023-03-10T22:31:37.985Z,90286.06
2023-03-10T22:34:10.304Z,90279.00
2023-03-10T22:36:43.236Z,90261.88
2023-03-10T22:39:15.528Z,90260.56
2023-03-10T22:41:47.884Z,90269.38
2023-03-10T22:44:20.230Z,90268.13
2023-03-10T22:46:52.647Z,90276.81
2023-03-10T22:49:24.983Z,90276.66
2023-03-10T22:51:58.352Z,90268.22
2023-03-10T22:54:30.620Z,90270.69
2023-03-10T22:57:03.025Z,90274.72
2023-03-10T22:59:35.383Z,90282.19
2023-03-10T23:02:07.960Z,90277.53
2023-03-10T23:04:40.527Z,90263.34
2023-03-10T23:07:13.607Z,90260.72
2023-03-10T23:09:45.928Z,90253.03
2023-03-10T23:12:18.211Z,90253.19
2023-03-10T23:14:50.794Z,90254.94
2023-03-10T23:17:23.132Z,90267.69
2023-03-10T23:19:56.229Z,90256.97
2023-03-10T23:22:29.206Z,90239.25
2023-03-10T23:25:01.676Z,90237.72
2023-03-10T23:27:34.111Z,90246.19
2023-03-10T23:30:09.829Z,90238.34
2023-03-10T23:32:42.576Z,90254.31
2023-03-10T23:35:17.295Z,90235.41
2023-03-10T23:37:51.011Z,90221.88
2023-03-10T23:40:26.346Z,90234.59
2023-03-10T23:43:00.235Z,90247.09
2023-03-10T23:45:35.271Z,90245.97
2023-03-10T23:48:11.652Z,90242.22
2023-03-10T23:50:45.800Z,90239.16
2023-03-10T23:53:19.898Z,90239.94
2023-03-10T23:55:52.217Z,90265.00
2023-03-10T23:58:24.962Z,90267.31
